createdAt,value
2018-11-21T00:01:47.651Z,25.07
2018-11-21T00:04:16.145Z,24.43
2018-11-21T00:06:44.353Z,23.90
2018-11-21T00:09:12.906Z,26.23
2018-11-21T00:11:41.145Z,24.57
2018-11-21T00:14:09.428Z,24.20
2018-11-21T00:16:37.975Z,23.97
2018-11-21T00:19:06.400Z,24.37
2018-11-21T00:21:34.671Z,26.30
2018-11-21T00:24:02.896Z,24.27
2018-11-21T00:26:31.149Z,24.03
2018-11-21T00:28:59.333Z,24.83
2018-11-21T00:31:27.836Z,24.47
2018-11-21T00:33:56.064Z,25.83
2018-11-21T00:36:24.281Z,25.57
2018-11-21T00:38:52.484Z,24.77
2018-11-21T00:41:20.767Z,25.67
2018-11-21T00:43:48.989Z,24.93
2018-11-21T00:46:17.191Z,25.67
2018-11-21T00:48:45.427Z,25.00
2018-11-21T00:51:14.756Z,25.20
2018-11-21T00:53:42.987Z,25.03
2018-11-21T00:56:11.367Z,24.73
2018-11-21T00:58:39.863Z,25.07
2018-11-21T01:01:08.107Z,25.17
2018-11-21T01:03:36.378Z,25.33
2018-11-21T01:06:04.600Z,25.27
2018-11-21T01:08:32.871Z,25.93
2018-11-21T01:11:01.069Z,26.07
2018-11-21T01:13:29.610Z,25.50
2018-11-21T01:15:57.903Z,25.00
2018-11-21T01:18:26.200Z,25.57
2018-11-21T01:20:54.477Z,26.17
2018-11-21T01:23:22.771Z,26.70
2018-11-21T01:25:50.963Z,27.17
2018-11-21T01:28:19.579Z,26.67
2018-11-21T01:30:47.780Z,26.60
2018-11-21T01:33:16.049Z,27.27
2018-11-21T01:35:44.314Z,24.53
2018-11-21T01:38:12.537Z,26.67
2018-11-21T01:40:40.853Z,25.47
2018-11-21T01:43:09.142Z,26.10
2018-11-21T01:45:40.125Z,25.13
2018-11-21T01:48:08.360Z,25.60
2018-11-21T01:50:36.579Z,25.53
2018-11-21T01:53:04.827Z,24.73
2018-11-21T01:55:35.836Z,25.80
2018-11-21T01:58:04.044Z,25.10
2018-11-21T02:00:32.578Z,24.40
2018-11-21T02:03:00.816Z,24.60
2018-11-21T02:05:29.312Z,25.47
2018-11-21T02:07:57.532Z,24.23
2018-11-21T02:10:25.792Z,23.47
2018-11-21T02:12:54.034Z,25.13
2018-11-21T02:15:22.278Z,24.43
2018-11-21T02:17:50.506Z,25.23
2018-11-21T02:20:18.832Z,23.47
2018-11-21T02:22:47.094Z,24.10
2018-11-21T02:25:15.417Z,24.17
2018-11-21T02:27:43.628Z,24.67
2018-11-21T02:30:12.188Z,25.73
2018-11-21T02:32:40.816Z,24.80
2018-11-21T02:35:09.295Z,26.87
2018-11-21T02:37:37.502Z,25.63
2018-11-21T02:40:06.517Z,25.83
2018-11-21T02:42:35.128Z,24.80
2018-11-21T02:45:03.465Z,25.63
2018-11-21T02:47:31.727Z,26.10
2018-11-21T02:50:00.082Z,24.87
2018-11-21T02:52:28.289Z,26.63
2018-11-21T02:54:56.590Z,25.97
2018-11-21T02:57:28.975Z,26.70
2018-11-21T03:00:08.071Z,26.27
2018-11-21T03:02:36.346Z,26.43
2018-11-21T03:05:04.693Z,26.37
2018-11-21T03:07:32.974Z,26.63
2018-11-21T03:10:01.197Z,25.73
2018-11-21T03:12:31.339Z,27.17
2018-11-21T03:14:59.571Z,27.17
2018-11-21T03:17:27.848Z,27.00
2018-11-21T03:19:56.072Z,25.83
2018-11-21T03:22:24.276Z,25.87
2018-11-21T03:24:52.498Z,26.53
2018-11-21T03:27:20.729Z,25.07
2018-11-21T03:29:48.940Z,26.20
2018-11-21T03:32:17.290Z,25.40
2018-11-21T03:34:45.496Z,25.37
2018-11-21T03:37:13.730Z,25.33
2018-11-21T03:39:42.269Z,25.57
2018-11-21T03:42:10.523Z,24.50
2018-11-21T03:44:39.135Z,25.33
2018-11-21T03:47:07.368Z,26.63
2018-11-21T03:49:35.947Z,25.23
2018-11-21T03:52:04.252Z,25.80
2018-11-21T03:54:32.410Z,25.10
2018-11-21T03:57:01.459Z,25.17
2018-11-21T03:59:29.670Z,28.20
2018-11-21T04:01:57.911Z,25.23
2018-11-21T04:04:26.109Z,25.17
2018-11-21T04:06:54.408Z,26.33
2018-11-21T04:09:22.657Z,25.40
2018-11-21T04:11:50.882Z,26.20
2018-11-21T04:14:19.135Z,25.57
2018-11-21T04:16:47.434Z,25.47
2018-11-21T04:19:15.622Z,26.87
2018-11-21T04:21:43.881Z,25.30
2018-11-21T04:24:12.082Z,26.20
2018-11-21T04:26:40.325Z,26.47
2018-11-21T04:29:08.649Z,25.13
2018-11-21T04:31:36.871Z,24.73
2018-11-21T04:34:05.339Z,25.47
2018-11-21T04:36:33.544Z,26.40
2018-11-21T04:39:01.773Z,24.70
2018-11-21T04:41:29.994Z,25.40
2018-11-21T04:43:58.231Z,26.43
2018-11-21T04:46:26.470Z,27.07
2018-11-21T04:48:55.072Z,25.63
2018-11-21T04:51:23.331Z,26.57
2018-11-21T04:53:51.554Z,25.93
2018-11-21T04:56:20.090Z,25.53
2018-11-21T04:58:48.712Z,27.57
2018-11-21T05:01:17.034Z,25.63
2018-11-21T05:03:45.243Z,24.87
2018-11-21T05:06:13.498Z,25.37
2018-11-21T05:08:41.779Z,25.73
2018-11-21T05:11:10.001Z,27.33
2018-11-21T05:13:38.301Z,24.97
2018-11-21T05:16:06.991Z,25.47
2018-11-21T05:18:35.274Z,26.40
2018-11-21T05:21:03.778Z,27.17
2018-11-21T05:23:32.367Z,26.67
2018-11-21T05:26:00.683Z,27.00
2018-11-21T05:28:28.899Z,26.57
2018-11-21T05:30:57.222Z,28.43
2018-11-21T05:33:26.839Z,25.47
2018-11-21T05:35:55.091Z,26.93
2018-11-21T05:38:23.287Z,28.13
2018-11-21T05:40:52.266Z,28.00
2018-11-21T05:43:20.899Z,26.57
2018-11-21T05:45:49.771Z,28.33
2018-11-21T05:48:18.802Z,28.30
2018-11-21T05:50:47.063Z,28.70
2018-11-21T05:53:15.271Z,28.30
2018-11-21T05:55:43.503Z,28.03
2018-11-21T05:58:12.066Z,28.50
2018-11-21T06:00:40.306Z,28.53
2018-11-21T06:03:08.971Z,28.10
2018-11-21T06:05:37.271Z,27.17
2018-11-21T06:08:05.709Z,29.37
2018-11-21T06:10:33.904Z,28.43
2018-11-21T06:13:02.179Z,28.33
2018-11-21T06:15:30.396Z,27.67
2018-11-21T06:17:58.656Z,27.23
2018-11-21T06:20:26.873Z,28.40
2018-11-21T06:22:55.471Z,27.23
2018-11-21T06:25:23.685Z,28.77
2018-11-21T06:27:52.243Z,29.17
2018-11-21T06:30:20.786Z,28.90
2018-11-21T06:32:48.994Z,28.23
2018-11-21T06:35:17.229Z,28.40
2018-11-21T06:37:45.483Z,28.60
2018-11-21T06:40:15.030Z,28.30
2018-11-21T06:42:52.818Z,27.77
2018-11-21T06:45:22.070Z,27.87
2018-11-21T06:47:50.457Z,27.23
2018-11-21T06:50:19.074Z,27.50
2018-11-21T06:52:47.553Z,28.70
2018-11-21T06:55:16.553Z,28.93
2018-11-21T06:57:44.825Z,29.07
2018-11-21T07:00:13.169Z,29.20
2018-11-21T07:02:41.729Z,28.77
2018-11-21T07:05:10.837Z,29.47
2018-11-21T07:07:39.081Z,28.57
2018-11-21T07:10:10.240Z,29.00
2018-11-21T07:12:38.511Z,27.43
2018-11-21T07:15:07.354Z,27.63
2018-11-21T07:17:35.884Z,28.43
2018-11-21T07:20:04.762Z,28.77
2018-11-21T07:22:33.034Z,27.33
2018-11-21T07:25:01.327Z,27.40
2018-11-21T07:27:29.517Z,27.33
2018-11-21T07:29:57.806Z,28.53
2018-11-21T07:32:29.736Z,26.73
2018-11-21T07:34:58.000Z,28.13
2018-11-21T07:37:26.473Z,26.93
2018-11-21T07:39:54.753Z,28.80
2018-11-21T07:42:23.020Z,26.03
2018-11-21T07:44:52.068Z,26.37
2018-11-21T07:47:26.482Z,25.93
2018-11-21T07:49:48.583Z,25.87
2018-11-21T07:52:16.890Z,27.00
2018-11-21T07:54:45.464Z,26.23
2018-11-21T07:57:49.200Z,26.67
2018-11-21T08:01:04.179Z,27.00
2018-11-21T08:03:34.741Z,27.43
2018-11-21T08:06:06.100Z,26.33
2018-11-21T08:08:52.667Z,26.17
2018-11-21T08:11:43.509Z,27.07
2018-11-21T08:14:29.611Z,26.87
2018-11-21T08:17:14.931Z,26.63
2018-11-21T08:20:00.035Z,26.77
2018-11-21T08:23:05.432Z,27.87
2018-11-21T08:25:43.866Z,27.03
2018-11-21T08:28:43.110Z,27.70
2018-11-21T08:31:11.370Z,25.37
2018-11-21T08:33:39.649Z,28.07
2018-11-21T08:36:07.932Z,27.40
2018-11-21T08:38:36.195Z,27.30
2018-11-21T08:41:04.542Z,27.77
2018-11-21T08:43:33.057Z,27.17
2018-11-21T08:46:01.332Z,26.50
2018-11-21T08:48:29.579Z,26.67
2018-11-21T08:50:57.796Z,27.60
2018-11-21T08:53:26.658Z,26.03
2018-11-21T08:55:54.891Z,25.80
2018-11-21T08:58:23.106Z,27.23
2018-11-21T09:00:51.479Z,26.83
2018-11-21T09:03:20.175Z,26.97
2018-11-21T09:05:48.408Z,27.47
2018-11-21T09:08:16.720Z,26.50
2018-11-21T09:10:44.917Z,26.83
2018-11-21T09:13:13.122Z,27.87
2018-11-21T09:15:41.684Z,26.07
2018-11-21T09:18:09.911Z,27.70
2018-11-21T09:20:38.123Z,27.80
2018-11-21T09:23:06.358Z,29.37
2018-11-21T09:25:34.662Z,27.30
2018-11-21T09:28:02.884Z,27.00
2018-11-21T09:30:31.098Z,28.07
2018-11-21T09:32:59.849Z,26.80
2018-11-21T09:35:29.017Z,26.63
2018-11-21T09:37:57.274Z,27.23
2018-11-21T09:40:25.499Z,27.63
2018-11-21T09:42:55.185Z,26.70
2018-11-21T09:45:24.123Z,26.90
2018-11-21T09:47:52.635Z,27.63
2018-11-21T09:50:28.145Z,27.20
2018-11-21T09:52:56.432Z,26.97
2018-11-21T09:55:24.965Z,26.77
2018-11-21T09:57:54.063Z,27.67
2018-11-21T10:00:58.661Z,27.90
2018-11-21T10:03:31.764Z,27.30
2018-11-21T10:06:14.748Z,26.57
2018-11-21T10:08:47.216Z,27.30
2018-11-21T10:11:15.873Z,27.17
2018-11-21T10:13:44.071Z,27.40
2018-11-21T10:16:12.350Z,27.37
2018-11-21T10:18:42.224Z,28.47
2018-11-21T10:21:12.276Z,26.53
2018-11-21T10:23:40.503Z,28.07
2018-11-21T10:26:09.034Z,27.10
2018-11-21T10:28:37.688Z,27.90
2018-11-21T10:31:05.917Z,28.70
2018-11-21T10:33:34.214Z,26.53
2018-11-21T10:36:02.714Z,27.20
2018-11-21T10:38:30.977Z,27.50
2018-11-21T10:40:59.198Z,27.77
2018-11-21T10:43:28.442Z,26.87
2018-11-21T10:45:55.654Z,26.90
2018-11-21T10:48:23.888Z,28.67
2018-11-21T10:50:52.091Z,27.10
2018-11-21T10:53:20.305Z,26.53
2018-11-21T10:55:48.571Z,27.80
2018-11-21T10:58:16.779Z,27.50
2018-11-21T11:01:02.621Z,27.63
2018-11-21T11:03:33.342Z,28.30
2018-11-21T11:06:19.491Z,28.00
2018-11-21T11:09:18.874Z,26.90
2018-11-21T11:12:04.969Z,26.47
2018-11-21T11:15:54.684Z,28.63
2018-11-21T11:18:51.947Z,28.17
2018-11-21T11:21:39.195Z,28.57
2018-11-21T11:24:26.064Z,28.73
2018-11-21T11:27:07.719Z,28.00
2018-11-21T11:29:56.093Z,28.20
2018-11-21T11:32:44.351Z,28.90
2018-11-21T11:35:22.608Z,27.90
2018-11-21T11:38:19.733Z,28.97
2018-11-21T11:41:26.528Z,31.47
2018-11-21T11:44:14.865Z,29.20
2018-11-21T11:47:11.851Z,27.73
2018-11-21T11:50:08.530Z,27.77
2018-11-21T11:52:56.798Z,29.33
2018-11-21T11:55:43.954Z,29.17
2018-11-21T11:58:38.409Z,28.80
2018-11-21T12:01:22.470Z,28.73
2018-11-21T12:04:05.683Z,27.97
2018-11-21T12:06:53.094Z,29.97
2018-11-21T12:09:40.327Z,28.23
2018-11-21T12:12:27.259Z,27.63
2018-11-21T12:15:07.030Z,29.80
2018-11-21T12:18:06.306Z,28.97
2018-11-21T12:20:52.946Z,28.83
2018-11-21T12:23:46.943Z,28.60
2018-11-21T12:26:33.945Z,27.97
2018-11-21T12:29:23.499Z,28.40
2018-11-21T12:32:14.803Z,28.40
2018-11-21T12:35:12.092Z,28.20
2018-11-21T12:38:02.962Z,27.57
2018-11-21T12:40:40.742Z,27.93
2018-11-21T12:43:27.461Z,26.60
2018-11-21T12:46:27.545Z,27.07
2018-11-21T12:49:14.458Z,27.47
2018-11-21T12:52:11.690Z,28.30
2018-11-21T12:54:58.257Z,26.43
2018-11-21T12:58:01.416Z,27.73
2018-11-21T13:00:48.863Z,26.70
2018-11-21T13:03:37.834Z,25.03
2018-11-21T13:06:23.947Z,26.23
2018-11-21T13:09:11.371Z,25.80
2018-11-21T13:11:52.616Z,25.87
2018-11-21T13:14:40.240Z,26.37
2018-11-21T13:17:17.572Z,26.30
2018-11-21T13:20:05.843Z,25.53
2018-11-21T13:22:50.347Z,25.33
2018-11-21T13:25:41.270Z,25.97
2018-11-21T13:28:26.398Z,26.00
2018-11-21T13:31:22.506Z,25.27
2018-11-21T13:34:16.881Z,25.10
2018-11-21T13:36:57.764Z,24.47
2018-11-21T13:39:44.745Z,25.10
2018-11-21T13:42:33.202Z,24.60
2018-11-21T13:45:24.351Z,25.10
2018-11-21T13:48:12.607Z,23.73
2018-11-21T13:50:57.439Z,24.67
2018-11-21T13:53:44.574Z,23.50
2018-11-21T13:56:14.027Z,24.47
2018-11-21T13:58:43.494Z,24.10
2018-11-21T14:01:13.052Z,23.47
2018-11-21T14:03:42.558Z,23.37
2018-11-21T14:06:12.213Z,22.03
2018-11-21T14:08:41.646Z,23.40
2018-11-21T14:11:11.099Z,21.87
2018-11-21T14:13:40.856Z,22.70
2018-11-21T14:16:10.412Z,22.43
2018-11-21T14:18:39.850Z,22.60
2018-11-21T14:21:09.896Z,23.33
2018-11-21T14:23:39.514Z,21.43
2018-11-21T14:26:09.075Z,21.47
2018-11-21T14:28:38.508Z,22.63
2018-11-21T14:31:08.040Z,22.77
2018-11-21T14:33:37.535Z,22.60
2018-11-21T14:36:07.923Z,21.87
2018-11-21T14:38:37.371Z,22.93
2018-11-21T14:41:06.998Z,22.90
2018-11-21T14:43:36.547Z,21.77
2018-11-21T14:46:06.767Z,22.30
2018-11-21T14:48:36.250Z,21.80
2018-11-21T14:51:06.412Z,21.33
2018-11-21T14:53:35.834Z,20.87
2018-11-21T14:56:05.758Z,21.93
2018-11-21T14:58:35.189Z,20.97
2018-11-21T15:01:04.902Z,21.47
2018-11-21T15:03:34.328Z,22.03
2018-11-21T15:06:03.966Z,21.20
2018-11-21T15:08:33.459Z,21.10
2018-11-21T15:11:03.199Z,22.07
2018-11-21T15:13:32.998Z,22.07
2018-11-21T15:16:02.580Z,21.00
2018-11-21T15:18:32.120Z,22.57
2018-11-21T15:21:01.598Z,21.97
2018-11-21T15:23:31.026Z,21.10
2018-11-21T15:26:00.623Z,19.80
2018-11-21T15:28:30.313Z,21.17
2018-11-21T15:30:59.843Z,20.37
2018-11-21T15:33:29.400Z,19.70
2018-11-21T15:35:58.818Z,19.67
2018-11-21T15:38:28.382Z,19.97
2018-11-21T15:40:57.841Z,20.03
2018-11-21T15:43:27.428Z,20.33
2018-11-21T15:45:57.067Z,20.33
2018-11-21T15:48:26.678Z,20.10
2018-11-21T15:50:56.297Z,21.17
2018-11-21T15:53:25.891Z,21.97
2018-11-21T15:55:55.723Z,21.70
2018-11-21T15:58:25.419Z,21.33
2018-11-21T16:00:54.875Z,22.20
2018-11-21T16:03:24.324Z,20.40
2018-11-21T16:05:53.869Z,21.17
2018-11-21T16:08:23.307Z,21.80
2018-11-21T16:10:52.834Z,21.67
2018-11-21T16:13:22.286Z,21.80
2018-11-21T16:15:53.583Z,22.47
2018-11-21T16:18:25.194Z,21.43
2018-11-21T16:20:55.059Z,22.20
2018-11-21T16:23:24.654Z,23.50
2018-11-21T16:25:54.215Z,22.33
2018-11-21T16:28:23.823Z,23.40
2018-11-21T16:30:53.299Z,22.93
2018-11-21T16:33:22.827Z,25.70
2018-11-21T16:35:52.360Z,23.00
2018-11-21T16:38:22.155Z,23.53
2018-11-21T16:40:51.588Z,22.97
2018-11-21T16:43:21.065Z,23.00
2018-11-21T16:45:52.058Z,23.97
2018-11-21T16:48:21.512Z,24.07
2018-11-21T16:50:51.117Z,23.87
2018-11-21T16:53:20.747Z,24.03
2018-11-21T16:55:50.211Z,24.00
2018-11-21T16:58:19.765Z,24.57
2018-11-21T17:00:49.373Z,23.67
2018-11-21T17:03:18.915Z,24.73
2018-11-21T17:05:48.451Z,24.17
2018-11-21T17:08:18.363Z,25.57
2018-11-21T17:10:48.115Z,25.90
2018-11-21T17:13:17.624Z,25.80
2018-11-21T17:15:47.862Z,25.20
2018-11-21T17:18:17.340Z,25.70
2018-11-21T17:20:47.166Z,25.60
2018-11-21T17:23:16.710Z,24.93
2018-11-21T17:25:46.278Z,26.67
2018-11-21T17:28:15.837Z,27.20
2018-11-21T17:30:45.345Z,24.73
2018-11-21T17:33:14.798Z,26.70
2018-11-21T17:35:44.277Z,25.77
2018-11-21T17:38:13.782Z,25.53
2018-11-21T17:40:44.235Z,26.20
2018-11-21T17:43:13.701Z,27.53
2018-11-21T17:45:43.152Z,27.43
2018-11-21T17:48:12.822Z,27.17
2018-11-21T17:50:42.415Z,27.60
2018-11-21T17:53:11.868Z,28.20
2018-11-21T17:55:41.500Z,26.80
2018-11-21T17:58:10.937Z,27.67
2018-11-21T18:00:40.372Z,28.47
2018-11-21T18:03:10.194Z,26.63
2018-11-21T18:05:41.005Z,29.07
2018-11-21T18:08:10.456Z,29.37
2018-11-21T18:10:41.265Z,27.93
2018-11-21T18:13:10.723Z,27.30
2018-11-21T18:15:40.199Z,29.53
2018-11-21T18:18:09.739Z,27.77
2018-11-21T18:20:39.246Z,27.27
2018-11-21T18:23:08.731Z,27.87
2018-11-21T18:25:43.451Z,27.33
2018-11-21T18:28:12.993Z,26.93
2018-11-21T18:30:42.824Z,26.73
2018-11-21T18:33:12.383Z,26.80
2018-11-21T18:35:42.603Z,28.97
2018-11-21T18:38:12.058Z,25.97
2018-11-21T18:40:41.608Z,26.63
2018-11-21T18:43:11.197Z,27.13
2018-11-21T18:45:42.266Z,26.97
2018-11-21T18:48:11.991Z,27.33
2018-11-21T18:50:41.597Z,27.13
2018-11-21T18:53:11.827Z,28.23
2018-11-21T18:55:47.029Z,26.53
2018-11-21T18:58:31.499Z,27.20
2018-11-21T19:01:00.938Z,27.47
2018-11-21T19:03:30.385Z,27.37
2018-11-21T19:05:59.910Z,29.00
2018-11-21T19:08:29.382Z,29.47
2018-11-21T19:10:58.850Z,28.43
2018-11-21T19:13:28.935Z,29.93
2018-11-21T19:15:58.380Z,30.27
2018-11-21T19:18:27.942Z,29.03
2018-11-21T19:20:57.395Z,29.90
2018-11-21T19:23:26.921Z,29.97
2018-11-21T19:25:56.350Z,30.27
2018-11-21T19:28:26.521Z,29.90
2018-11-21T19:30:55.984Z,30.13
2018-11-21T19:33:25.771Z,31.63
2018-11-21T19:35:55.308Z,31.30
2018-11-21T19:38:24.739Z,30.07
2018-11-21T19:40:54.615Z,29.47
2018-11-21T19:43:24.179Z,29.57
2018-11-21T19:45:53.658Z,30.17
2018-11-21T19:48:23.486Z,32.07
2018-11-21T19:50:52.942Z,30.60
2018-11-21T19:53:22.486Z,31.57
2018-11-21T19:55:51.964Z,30.87
2018-11-21T19:58:21.592Z,30.90
2018-11-21T20:00:51.412Z,31.47
2018-11-21T20:03:20.882Z,30.37
2018-11-21T20:05:50.756Z,30.20
2018-11-21T20:08:20.174Z,31.00
2018-11-21T20:10:50.088Z,29.40
2018-11-21T20:13:19.769Z,29.73
2018-11-21T20:15:49.395Z,29.47
2018-11-21T20:18:19.738Z,30.43
2018-11-21T20:20:49.278Z,30.67
2018-11-21T20:23:19.507Z,28.20
2018-11-21T20:25:48.958Z,30.00
2018-11-21T20:28:18.410Z,29.40
2018-11-21T20:30:47.904Z,30.97
2018-11-21T20:33:17.524Z,31.47
2018-11-21T20:35:47.045Z,30.40
2018-11-21T20:38:16.488Z,28.07
2018-11-21T20:40:45.946Z,28.57
2018-11-21T20:43:15.456Z,28.83
2018-11-21T20:45:45.022Z,28.33
2018-11-21T20:48:14.494Z,29.40
2018-11-21T20:50:44.245Z,28.57
2018-11-21T20:53:14.242Z,30.53
2018-11-21T20:55:46.154Z,27.73
2018-11-21T20:58:15.616Z,28.87
2018-11-21T21:00:45.071Z,28.77
2018-11-21T21:03:14.613Z,27.43
2018-11-21T21:05:44.080Z,28.13
2018-11-21T21:08:13.511Z,27.97
2018-11-21T21:10:47.164Z,29.03
2018-11-21T21:13:16.706Z,28.23
2018-11-21T21:15:46.166Z,28.37
2018-11-21T21:18:15.601Z,28.67
2018-11-21T21:20:45.137Z,27.03
2018-11-21T21:23:14.625Z,26.97
2018-11-21T21:25:44.150Z,27.53
2018-11-21T21:28:13.915Z,26.90
2018-11-21T21:30:43.417Z,28.30
2018-11-21T21:33:12.842Z,27.97
2018-11-21T21:35:42.281Z,26.57
2018-11-21T21:38:11.754Z,28.83
2018-11-21T21:40:41.506Z,26.87
2018-11-21T21:43:10.939Z,27.90
2018-11-21T21:45:40.802Z,29.60
2018-11-21T21:48:10.329Z,27.40
2018-11-21T21:50:39.806Z,25.90
2018-11-21T21:53:09.243Z,28.90
2018-11-21T21:55:38.703Z,28.67
2018-11-21T21:58:08.109Z,28.47
2018-11-21T22:00:37.557Z,28.07
2018-11-21T22:03:07.009Z,28.40
2018-11-21T22:05:36.442Z,27.03
2018-11-21T22:08:06.218Z,27.30
2018-11-21T22:10:35.757Z,27.60
2018-11-21T22:13:05.639Z,26.60
2018-11-21T22:15:36.485Z,27.90
2018-11-21T22:18:07.965Z,27.40
2018-11-21T22:20:37.530Z,28.03
2018-11-21T22:23:07.092Z,25.43
2018-11-21T22:25:36.658Z,28.07
2018-11-21T22:28:06.678Z,26.37
2018-11-21T22:30:36.105Z,26.73
2018-11-21T22:33:05.768Z,28.53
2018-11-21T22:35:37.008Z,26.60
2018-11-21T22:38:06.688Z,28.20
2018-11-21T22:40:36.123Z,27.40
2018-11-21T22:43:05.821Z,27.77
2018-11-21T22:45:35.349Z,26.30
2018-11-21T22:48:04.910Z,27.23
2018-11-21T22:50:34.374Z,27.87
2018-11-21T22:53:03.855Z,29.07
2018-11-21T22:55:33.622Z,27.83
2018-11-21T22:58:03.085Z,26.70
2018-11-21T23:00:43.622Z,28.00
2018-11-21T23:03:14.118Z,28.33
2018-11-21T23:05:43.683Z,27.33
2018-11-21T23:08:13.085Z,28.00
2018-11-21T23:10:42.614Z,28.77
2018-11-21T23:13:12.180Z,28.57
2018-11-21T23:15:42.072Z,28.30
2018-11-21T23:18:11.554Z,28.53
2018-11-21T23:20:41.020Z,28.20
2018-11-21T23:23:10.600Z,29.13
2018-11-21T23:25:40.082Z,30.40
2018-11-21T23:28:09.539Z,29.90
2018-11-21T23:30:39.297Z,29.93
2018-11-21T23:33:08.796Z,28.90
2018-11-21T23:35:38.319Z,29.07
2018-11-21T23:38:07.825Z,29.40
2018-11-21T23:40:37.291Z,28.80
2018-11-21T23:43:06.967Z,28.67
2018-11-21T23:45:36.596Z,28.97
2018-11-21T23:48:06.170Z,27.67
2018-11-21T23:50:35.718Z,29.60
2018-11-21T23:53:05.572Z,28.03
2018-11-21T23:55:35.047Z,30.63
2018-11-21T23:58:04.679Z,29.20
